createdAt,value
2023-10-14T00:00:46.780Z,65.47
2023-10-14T00:01:46.790Z,65.37
2023-10-14T00:02:46.768Z,65.56
2023-10-14T00:03:46.811Z,65.67
2023-10-14T00:04:46.830Z,65.87
2023-10-14T00:05:46.694Z,65.56
2023-10-14T00:06:46.735Z,65.47
2023-10-14T00:07:46.677Z,65.47
2023-10-14T00:08:46.665Z,65.64
2023-10-14T00:09:46.683Z,65.73
2023-10-14T00:10:46.683Z,65.64
2023-10-14T00:11:46.661Z,65.80
2023-10-14T00:12:46.682Z,65.70
2023-10-14T00:13:46.605Z,65.73
2023-10-14T00:14:46.644Z,65.70
2023-10-14T00:15:46.597Z,65.91
2023-10-14T00:16:46.648Z,65.50
2023-10-14T00:17:46.603Z,65.80
2023-10-14T00:18:46.583Z,65.31
2023-10-14T00:19:46.557Z,65.61
2023-10-14T00:20:46.540Z,65.20
2023-10-14T00:21:46.587Z,65.61
2023-10-14T00:22:46.520Z,65.41
2023-10-14T00:23:46.555Z,65.80
2023-10-14T00:24:46.562Z,65.70
2023-10-14T00:25:46.496Z,65.08
2023-10-14T00:26:46.481Z,65.17
2023-10-14T00:27:46.533Z,64.81
2023-10-14T00:28:46.457Z,65.01
2023-10-14T00:29:46.448Z,64.61
2023-10-14T00:30:46.453Z,64.61
2023-10-14T00:31:46.538Z,64.31
2023-10-14T00:32:46.476Z,64.61
2023-10-14T00:33:46.487Z,64.14
2023-10-14T00:34:46.411Z,64.34
2023-10-14T00:35:46.387Z,64.51
2023-10-14T00:36:46.404Z,64.24
2023-10-14T00:37:46.369Z,64.24
2023-10-14T00:38:46.377Z,64.44
2023-10-14T00:39:46.397Z,64.44
2023-10-14T00:40:46.338Z,64.64
2023-10-14T00:41:46.352Z,64.74
2023-10-14T00:42:46.367Z,64.84
2023-10-14T00:43:46.306Z,64.64
2023-10-14T00:44:46.294Z,64.74
2023-10-14T00:45:46.487Z,64.64
2023-10-14T00:46:46.317Z,64.64
2023-10-14T00:47:46.357Z,64.84
2023-10-14T00:48:46.293Z,64.87
2023-10-14T00:49:46.244Z,64.77
2023-10-14T00:50:46.237Z,64.77
2023-10-14T00:51:46.239Z,64.77
2023-10-14T00:52:46.211Z,64.77
2023-10-14T00:53:46.206Z,64.77
2023-10-14T00:54:46.242Z,64.97
2023-10-14T00:55:46.185Z,64.87
2023-10-14T00:56:46.193Z,65.17
2023-10-14T00:57:46.195Z,65.07
2023-10-14T00:58:46.149Z,64.87
2023-10-14T00:59:46.155Z,65.26
2023-10-14T01:00:46.138Z,65.26
2023-10-14T01:01:46.165Z,65.04
2023-10-14T01:02:46.115Z,65.23
2023-10-14T01:03:46.120Z,64.94
2023-10-14T01:04:46.093Z,65.23
2023-10-14T01:05:46.117Z,65.23
2023-10-14T01:06:46.095Z,65.14
2023-10-14T01:07:46.064Z,65.04
2023-10-14T01:08:46.053Z,65.14
2023-10-14T01:09:46.070Z,65.23
2023-10-14T01:10:46.030Z,65.01
2023-10-14T01:11:46.025Z,64.84
2023-10-14T01:12:46.585Z,65.14
2023-10-14T01:13:46.001Z,65.04
2023-10-14T01:14:46.137Z,64.94
2023-10-14T01:15:45.987Z,64.94
2023-10-14T01:16:46.675Z,65.01
2023-10-14T01:17:46.016Z,65.23
2023-10-14T01:18:45.951Z,65.04
2023-10-14T01:19:45.936Z,65.14
2023-10-14T01:20:45.931Z,65.14
2023-10-14T01:21:45.976Z,64.94
2023-10-14T01:22:45.906Z,65.14
2023-10-14T01:23:45.897Z,65.04
2023-10-14T01:24:45.912Z,65.23
2023-10-14T01:25:45.877Z,64.84
2023-10-14T01:26:45.894Z,65.04
2023-10-14T01:27:45.937Z,64.74
2023-10-14T01:28:45.851Z,64.74
2023-10-14T01:29:45.892Z,64.87
2023-10-14T01:30:45.863Z,64.77
2023-10-14T01:31:45.882Z,64.77
2023-10-14T01:32:45.949Z,64.77
2023-10-14T01:33:45.902Z,64.67
2023-10-14T01:34:45.786Z,65.07
2023-10-14T01:35:45.775Z,64.87
2023-10-14T01:36:45.801Z,64.87
2023-10-14T01:37:45.759Z,65.17
2023-10-14T01:38:45.749Z,65.37
2023-10-14T01:39:45.766Z,65.17
2023-10-14T01:40:45.725Z,65.17
2023-10-14T01:41:45.714Z,65.17
2023-10-14T01:42:45.741Z,65.26
2023-10-14T01:43:45.745Z,65.17
2023-10-14T01:44:45.691Z,65.07
2023-10-14T01:45:45.757Z,65.17
2023-10-14T01:46:45.876Z,65.26
2023-10-14T01:47:45.708Z,65.17
2023-10-14T01:48:45.753Z,65.26
2023-10-14T01:49:45.643Z,65.17
2023-10-14T01:50:45.640Z,65.26
2023-10-14T01:51:45.696Z,65.37
2023-10-14T01:52:45.607Z,65.56
2023-10-14T01:53:45.595Z,65.37
2023-10-14T01:54:45.619Z,65.26
2023-10-14T01:55:45.577Z,65.17
2023-10-14T01:56:45.564Z,65.17
2023-10-14T01:57:45.589Z,65.17
2023-10-14T01:58:45.646Z,65.37
2023-10-14T01:59:45.534Z,65.37
2023-10-14T02:00:45.547Z,65.17
2023-10-14T02:01:45.644Z,65.37
2023-10-14T02:02:45.699Z,65.17
2023-10-14T02:03:46.027Z,65.26
2023-10-14T02:04:45.625Z,65.07
2023-10-14T02:05:45.805Z,65.26
2023-10-14T02:06:45.495Z,65.47
2023-10-14T02:07:45.455Z,65.56
2023-10-14T02:08:45.445Z,65.17
2023-10-14T02:09:45.456Z,65.37
2023-10-14T02:10:45.423Z,65.37
2023-10-14T02:11:45.412Z,65.17
2023-10-14T02:12:45.456Z,65.47
2023-10-14T02:13:45.399Z,65.67
2023-10-14T02:14:45.393Z,65.56
2023-10-14T02:15:45.470Z,65.67
2023-10-14T02:16:45.507Z,65.87
2023-10-14T02:17:45.376Z,65.64
2023-10-14T02:18:45.342Z,65.64
2023-10-14T02:19:45.332Z,65.53
2023-10-14T02:20:45.318Z,65.64
2023-10-14T02:21:45.350Z,65.53
2023-10-14T02:22:45.298Z,65.44
2023-10-14T02:23:45.307Z,65.14
2023-10-14T02:24:45.360Z,65.14
2023-10-14T02:25:45.273Z,65.14
2023-10-14T02:26:45.273Z,65.44
2023-10-14T02:27:45.298Z,65.47
2023-10-14T02:28:45.244Z,65.34
2023-10-14T02:29:45.240Z,65.07
2023-10-14T02:30:45.236Z,65.26
2023-10-14T02:31:45.330Z,65.37
2023-10-14T02:32:45.231Z,65.17
2023-10-14T02:33:45.237Z,65.26
2023-10-14T02:34:45.174Z,65.37
2023-10-14T02:35:45.174Z,65.37
2023-10-14T02:36:45.182Z,65.64
2023-10-14T02:37:45.146Z,65.77
2023-10-14T02:38:45.136Z,65.56
2023-10-14T02:39:45.277Z,65.17
2023-10-14T02:40:45.114Z,65.37
2023-10-14T02:41:45.121Z,65.17
2023-10-14T02:42:45.156Z,65.17
2023-10-14T02:43:45.088Z,65.37
2023-10-14T02:44:45.083Z,65.37
2023-10-14T02:45:45.097Z,65.26
2023-10-14T02:46:45.116Z,65.26
2023-10-14T02:47:45.078Z,65.37
2023-10-14T02:48:45.056Z,65.07
2023-10-14T02:49:45.024Z,65.00
2023-10-14T02:50:45.028Z,65.10
2023-10-14T02:51:45.044Z,65.10
2023-10-14T02:52:44.993Z,65.20
2023-10-14T02:53:44.984Z,65.10
2023-10-14T02:54:45.004Z,64.83
2023-10-14T02:55:44.986Z,64.93
2023-10-14T02:56:46.842Z,64.93
2023-10-14T02:57:44.971Z,65.23
2023-10-14T02:58:44.936Z,65.23
2023-10-14T02:59:45.178Z,65.23
2023-10-14T03:00:44.997Z,65.46
2023-10-14T03:01:44.978Z,65.53
2023-10-14T03:02:45.015Z,65.33
2023-10-14T03:03:44.945Z,65.36
2023-10-14T03:04:44.873Z,65.26
2023-10-14T03:05:44.868Z,65.26
2023-10-14T03:06:44.878Z,65.39
2023-10-14T03:07:44.848Z,65.49
2023-10-14T03:08:44.829Z,65.49
2023-10-14T03:09:44.826Z,65.59
2023-10-14T03:10:44.881Z,65.89
2023-10-14T03:11:44.810Z,65.89
2023-10-14T03:12:44.820Z,65.99
2023-10-14T03:13:44.792Z,65.79
2023-10-14T03:14:44.779Z,65.59
2023-10-14T03:15:44.763Z,65.69
2023-10-14T03:16:44.804Z,66.19
2023-10-14T03:17:44.748Z,65.59
2023-10-14T03:18:44.765Z,65.99
2023-10-14T03:19:44.716Z,65.99
2023-10-14T03:20:44.712Z,66.29
2023-10-14T03:21:44.734Z,66.19
2023-10-14T03:22:44.693Z,66.09
2023-10-14T03:23:44.676Z,66.06
2023-10-14T03:24:44.728Z,66.16
2023-10-14T03:25:44.650Z,66.16
2023-10-14T03:26:44.646Z,66.16
2023-10-14T03:27:44.644Z,66.06
2023-10-14T03:28:44.668Z,66.06
2023-10-14T03:29:44.609Z,66.16
2023-10-14T03:30:44.683Z,66.16
2023-10-14T03:31:44.748Z,66.06
2023-10-14T03:32:44.603Z,66.03
2023-10-14T03:33:45.160Z,66.03
2023-10-14T03:34:44.560Z,66.03
2023-10-14T03:35:44.696Z,66.13
2023-10-14T03:36:44.544Z,65.63
2023-10-14T03:37:44.533Z,65.76
2023-10-14T03:38:44.518Z,65.66
2023-10-14T03:39:44.533Z,65.06
2023-10-14T03:40:44.534Z,64.39
2023-10-14T03:41:44.490Z,64.32
2023-10-14T03:42:44.497Z,63.85
2023-10-14T03:43:44.460Z,63.58
2023-10-14T03:44:44.460Z,63.51
2023-10-14T03:45:44.463Z,63.47
2023-10-14T03:46:44.653Z,63.81
2023-10-14T03:47:44.444Z,64.87
2023-10-14T03:48:44.430Z,65.70
2023-10-14T03:49:44.427Z,66.74
2023-10-14T03:50:44.394Z,67.55
2023-10-14T03:51:44.422Z,67.88
2023-10-14T03:52:44.368Z,68.62
2023-10-14T03:53:44.356Z,67.91
2023-10-14T03:54:44.367Z,68.62
2023-10-14T03:55:44.332Z,68.85
2023-10-14T03:56:44.326Z,69.96
2023-10-14T03:57:44.332Z,70.29
2023-10-14T03:58:44.300Z,70.90
2023-10-14T03:59:44.317Z,70.90
2023-10-14T04:00:44.310Z,71.10
2023-10-14T04:01:44.308Z,71.33
2023-10-14T04:02:44.285Z,71.73
2023-10-14T04:03:44.294Z,72.04
2023-10-14T04:04:44.367Z,71.53
2023-10-14T04:05:44.222Z,72.14
2023-10-14T04:06:44.364Z,72.27
2023-10-14T04:07:44.200Z,72.34
2023-10-14T04:08:44.189Z,72.54
2023-10-14T04:09:44.296Z,72.74
2023-10-14T04:10:44.165Z,73.25
2023-10-14T04:11:44.156Z,73.14
2023-10-14T04:12:44.151Z,73.95
2023-10-14T04:13:44.125Z,73.65
2023-10-14T04:14:44.117Z,73.55
2023-10-14T04:15:44.124Z,73.95
2023-10-14T04:16:44.092Z,74.26
2023-10-14T04:17:44.110Z,74.35
2023-10-14T04:18:44.125Z,74.15
2023-10-14T04:19:44.137Z,74.76
2023-10-14T04:20:44.051Z,74.86
2023-10-14T04:21:44.046Z,74.82
2023-10-14T04:22:44.032Z,75.33
2023-10-14T04:23:44.014Z,75.23
2023-10-14T04:24:44.014Z,75.33
2023-10-14T04:25:44.247Z,75.53
2023-10-14T04:26:43.995Z,75.63
2023-10-14T04:27:43.986Z,75.73
2023-10-14T04:28:43.968Z,76.03
2023-10-14T04:29:43.941Z,76.14
2023-10-14T04:30:44.239Z,76.14
2023-10-14T04:31:44.014Z,76.14
2023-10-14T04:32:43.966Z,76.03
2023-10-14T04:33:43.922Z,76.43
2023-10-14T04:34:43.890Z,76.80
2023-10-14T04:35:43.904Z,76.43
2023-10-14T04:36:43.934Z,76.84
2023-10-14T04:37:43.867Z,76.84
2023-10-14T04:38:43.991Z,77.04
2023-10-14T04:39:43.913Z,76.80
2023-10-14T04:40:43.808Z,76.90
2023-10-14T04:41:43.994Z,77.11
2023-10-14T04:42:43.878Z,77.00
2023-10-14T04:43:43.773Z,76.90
2023-10-14T04:44:43.764Z,76.80
2023-10-14T04:45:43.806Z,76.70
2023-10-14T04:46:43.848Z,76.67
2023-10-14T04:47:43.862Z,76.70
2023-10-14T04:48:43.756Z,76.97
2023-10-14T04:49:43.749Z,77.00
2023-10-14T04:50:43.693Z,77.20
2023-10-14T04:51:43.702Z,77.00
2023-10-14T04:52:43.682Z,76.87
2023-10-14T04:53:43.651Z,77.20
2023-10-14T04:54:43.664Z,77.17
2023-10-14T04:55:43.627Z,77.07
2023-10-14T04:56:43.619Z,77.27
2023-10-14T04:57:43.643Z,77.87
2023-10-14T04:58:43.624Z,77.47
2023-10-14T04:59:43.659Z,77.27
2023-10-14T05:00:43.893Z,78.17
2023-10-14T05:01:43.904Z,77.87
2023-10-14T05:02:43.649Z,77.87
2023-10-14T05:03:43.621Z,78.17
2023-10-14T05:04:43.558Z,77.77
2023-10-14T05:05:43.706Z,77.97
2023-10-14T05:06:43.665Z,77.63
2023-10-14T05:07:43.493Z,77.57
2023-10-14T05:08:43.484Z,77.53
2023-10-14T05:09:43.509Z,77.63
2023-10-14T05:10:43.476Z,77.83
2023-10-14T05:11:43.443Z,77.67
2023-10-14T05:12:43.506Z,77.97
2023-10-14T05:13:43.427Z,77.83
2023-10-14T05:14:43.437Z,77.73
2023-10-14T05:15:43.449Z,78.23
2023-10-14T05:16:43.432Z,78.23
2023-10-14T05:17:43.387Z,78.34
2023-10-14T05:18:43.381Z,78.03
2023-10-14T05:19:43.573Z,79.35
2023-10-14T05:20:43.363Z,78.67
2023-10-14T05:21:43.348Z,79.28
2023-10-14T05:22:43.319Z,79.28
2023-10-14T05:23:43.352Z,79.62
2023-10-14T05:24:43.331Z,79.82
2023-10-14T05:25:43.278Z,79.32
2023-10-14T05:26:43.317Z,79.92
2023-10-14T05:27:43.316Z,80.43
2023-10-14T05:28:43.248Z,80.22
2023-10-14T05:29:43.228Z,80.02
2023-10-14T05:30:43.273Z,80.06
2023-10-14T05:31:43.366Z,80.26
2023-10-14T05:32:43.236Z,80.57
2023-10-14T05:33:43.237Z,79.96
2023-10-14T05:34:43.206Z,80.80
2023-10-14T05:35:43.161Z,80.64
2023-10-14T05:36:43.149Z,81.21
2023-10-14T05:37:43.192Z,81.10
2023-10-14T05:38:43.125Z,80.84
2023-10-14T05:39:43.168Z,80.84
2023-10-14T05:40:43.120Z,81.01
2023-10-14T05:41:43.081Z,81.41
2023-10-14T05:42:43.080Z,81.24
2023-10-14T05:43:43.110Z,81.30
2023-10-14T05:44:43.059Z,81.41
2023-10-14T05:45:43.036Z,81.45
2023-10-14T05:46:43.110Z,81.01
2023-10-14T05:47:43.167Z,81.51
2023-10-14T05:48:43.046Z,81.41
2023-10-14T05:49:43.098Z,81.61
2023-10-14T05:50:42.993Z,81.61
2023-10-14T05:51:43.021Z,81.41
2023-10-14T05:52:42.964Z,81.41
2023-10-14T05:53:42.981Z,81.51
2023-10-14T05:54:42.928Z,81.51
2023-10-14T05:55:42.921Z,81.61
2023-10-14T05:56:42.945Z,81.71
2023-10-14T05:57:42.895Z,81.51
2023-10-14T05:58:42.886Z,81.61
2023-10-14T05:59:42.875Z,81.67
2023-10-14T06:00:42.860Z,82.01
2023-10-14T06:01:42.848Z,81.67
2023-10-14T06:02:42.905Z,82.38
2023-10-14T06:03:42.902Z,82.18
2023-10-14T06:04:42.925Z,81.98
2023-10-14T06:05:42.798Z,82.28
2023-10-14T06:06:42.785Z,82.28
2023-10-14T06:07:42.770Z,82.28
2023-10-14T06:08:42.775Z,82.38
2023-10-14T06:09:42.750Z,82.68
2023-10-14T06:10:42.730Z,83.12
2023-10-14T06:11:42.725Z,82.62
2023-10-14T06:12:42.708Z,82.71
2023-10-14T06:13:42.713Z,82.92
2023-10-14T06:14:42.688Z,82.82
2023-10-14T06:15:42.684Z,83.16
2023-10-14T06:16:42.683Z,83.36
2023-10-14T06:17:42.694Z,83.26
2023-10-14T06:18:42.637Z,83.26
2023-10-14T06:19:42.621Z,83.56
2023-10-14T06:20:42.607Z,83.56
2023-10-14T06:21:42.685Z,83.76
2023-10-14T06:22:42.585Z,83.87
2023-10-14T06:23:42.572Z,83.66
2023-10-14T06:24:42.563Z,83.66
2023-10-14T06:25:42.551Z,82.86
2023-10-14T06:26:42.531Z,82.50
2023-10-14T06:27:42.540Z,82.19
2023-10-14T06:28:42.510Z,81.73
2023-10-14T06:29:42.551Z,81.82
2023-10-14T06:30:42.505Z,81.56
2023-10-14T06:31:42.508Z,81.46
2023-10-14T06:32:42.698Z,82.31
2023-10-14T06:33:42.442Z,82.24
2023-10-14T06:34:42.458Z,82.24
2023-10-14T06:35:45.372Z,82.65
2023-10-14T06:36:42.408Z,82.85
2023-10-14T06:37:42.478Z,82.95
2023-10-14T06:38:42.549Z,82.89
2023-10-14T06:41:41.746Z,83.19
2023-10-14T06:45:46.971Z,83.03
2023-10-14T06:46:47.478Z,83.84
2023-10-14T06:47:49.824Z,84.04
2023-10-14T06:48:48.948Z,84.14
2023-10-14T06:51:15.404Z,83.54
2023-10-14T06:51:46.646Z,84.14
2023-10-14T06:52:46.678Z,83.94
2023-10-14T06:53:46.477Z,83.44
2023-10-14T06:54:46.578Z,84.55
2023-10-14T06:55:46.453Z,84.25
2023-10-14T06:56:46.507Z,84.25
2023-10-14T06:59:53.652Z,83.80
2023-10-14T07:00:49.482Z,84.14
2023-10-14T07:01:48.953Z,84.14
2023-10-14T07:02:49.084Z,84.31
2023-10-14T07:03:46.790Z,84.55
2023-10-14T07:04:49.167Z,84.51
2023-10-14T07:05:50.986Z,85.11
2023-10-14T07:06:48.700Z,84.81
2023-10-14T07:08:47.166Z,84.41
2023-10-14T07:09:47.728Z,84.61
2023-10-14T07:10:48.569Z,84.57
2023-10-14T07:11:48.616Z,84.41
2023-10-14T07:12:48.213Z,84.67
2023-10-14T07:13:46.322Z,84.61
2023-10-14T07:14:46.631Z,84.71
2023-10-14T07:15:46.269Z,84.37
2023-10-14T07:16:46.255Z,84.87
2023-10-14T07:17:46.212Z,84.47
2023-10-14T07:18:46.179Z,84.53
2023-10-14T07:19:46.164Z,84.23
2023-10-14T07:20:46.130Z,83.72
2023-10-14T07:21:46.119Z,83.78
2023-10-14T07:22:46.097Z,83.01
2023-10-14T07:23:46.218Z,83.52
2023-10-14T07:24:46.134Z,84.09
2023-10-14T07:25:46.078Z,83.98
2023-10-14T07:26:46.057Z,84.09
2023-10-14T07:27:48.649Z,83.54
2023-10-14T07:28:46.042Z,83.24
2023-10-14T07:29:46.016Z,82.90
2023-10-14T07:30:45.996Z,82.76
2023-10-14T07:31:46.189Z,82.42
2023-10-14T07:32:46.056Z,82.11
2023-10-14T07:33:45.980Z,81.67
2023-10-14T07:34:45.945Z,81.73
2023-10-14T07:35:45.935Z,81.19
2023-10-14T07:36:45.988Z,80.99
2023-10-14T07:37:45.919Z,81.19
2023-10-14T07:38:46.030Z,80.69
2023-10-14T07:39:45.946Z,81.29
2023-10-14T07:40:45.877Z,81.49
2023-10-14T07:41:45.938Z,81.15
2023-10-14T07:42:45.883Z,81.35
2023-10-14T07:43:45.839Z,80.45
2023-10-14T07:44:46.829Z,80.51
2023-10-14T07:45:45.839Z,80.31
2023-10-14T07:46:45.918Z,79.57
2023-10-14T07:47:45.898Z,78.63
2023-10-14T07:48:45.781Z,78.96
2023-10-14T07:49:45.787Z,78.11
2023-10-14T07:50:45.801Z,78.18
2023-10-14T07:51:45.792Z,77.34
2023-10-14T07:52:45.755Z,77.34
2023-10-14T07:53:45.755Z,77.04
2023-10-14T07:54:45.722Z,77.17
2023-10-14T07:55:45.704Z,76.13
2023-10-14T07:56:45.693Z,76.39
2023-10-14T07:57:45.742Z,72.85
2023-10-14T07:58:46.282Z,74.12
2023-10-14T07:59:45.663Z,75.59
2023-10-14T08:00:45.664Z,76.03
2023-10-14T08:01:45.701Z,76.50
2023-10-14T08:02:45.687Z,77.34
2023-10-14T08:03:45.649Z,78.18
2023-10-14T08:04:45.650Z,77.87
2023-10-14T08:05:45.598Z,77.61
2023-10-14T08:06:45.604Z,77.75
2023-10-14T08:07:45.580Z,77.79
2023-10-14T08:08:45.606Z,79.29
2023-10-14T08:09:45.591Z,78.25
2023-10-14T08:10:45.556Z,77.45
2023-10-14T08:11:45.551Z,77.35
2023-10-14T08:12:45.550Z,77.55
2023-10-14T08:13:45.555Z,77.05
2023-10-14T08:14:45.512Z,76.54
2023-10-14T08:15:45.741Z,76.95
2023-10-14T08:16:45.567Z,76.28
2023-10-14T08:17:45.476Z,76.15
2023-10-14T08:18:45.539Z,75.60
2023-10-14T08:19:45.517Z,75.60
2023-10-14T08:20:45.447Z,75.71
2023-10-14T08:21:45.453Z,75.07
2023-10-14T08:22:45.406Z,74.63
2023-10-14T08:23:45.395Z,74.40
2023-10-14T08:24:45.390Z,73.09
2023-10-14T08:25:45.381Z,71.69
2023-10-14T08:26:45.398Z,67.40
2023-10-14T08:27:45.465Z,62.23
2023-10-14T08:28:45.349Z,57.73
2023-10-14T08:29:45.355Z,54.78
2023-10-14T08:30:45.330Z,53.30
2023-10-14T08:31:45.348Z,51.78
2023-10-14T08:32:45.388Z,54.04
2023-10-14T08:33:47.344Z,57.05
2023-10-14T08:34:45.328Z,59.14
2023-10-14T08:35:45.274Z,62.40
2023-10-14T08:36:45.270Z,64.14
2023-10-14T08:37:45.263Z,65.78
2023-10-14T08:38:45.284Z,65.39
2023-10-14T08:39:45.355Z,65.19
2023-10-14T08:40:45.347Z,65.89
2023-10-14T08:41:45.227Z,66.58
2023-10-14T08:42:45.236Z,66.12
2023-10-14T08:43:45.234Z,65.10
2023-10-14T08:44:45.376Z,61.43
2023-10-14T08:45:45.279Z,57.88
2023-10-14T08:46:45.364Z,55.46
2023-10-14T08:47:45.259Z,54.28
2023-10-14T08:48:45.172Z,56.23
2023-10-14T08:49:45.197Z,57.92
2023-10-14T08:50:45.185Z,58.22
2023-10-14T08:51:54.155Z,57.34
2023-10-14T08:52:45.190Z,58.11
2023-10-14T08:53:45.141Z,57.95
2023-10-14T08:54:45.161Z,58.28
2023-10-14T08:55:45.240Z,58.34
2023-10-14T08:56:45.122Z,58.12
2023-10-14T08:57:45.889Z,58.26
2023-10-14T08:58:45.194Z,57.59
2023-10-14T08:59:45.104Z,56.68
2023-10-14T09:00:45.366Z,59.08
2023-10-14T09:01:45.517Z,61.18
2023-10-14T09:02:45.151Z,59.76
2023-10-14T09:03:45.150Z,56.41
2023-10-14T09:04:45.095Z,53.91
2023-10-14T09:05:45.091Z,55.46
2023-10-14T09:06:45.160Z,58.02
2023-10-14T09:07:45.130Z,58.04
2023-10-14T09:08:45.084Z,60.28
2023-10-14T09:09:45.162Z,60.25
2023-10-14T09:10:45.135Z,59.33
2023-10-14T09:11:45.034Z,59.80
2023-10-14T09:12:45.037Z,59.05
2023-10-14T09:13:45.104Z,59.71
2023-10-14T09:14:45.094Z,59.19
2023-10-14T09:15:45.113Z,59.52
2023-10-14T09:16:45.319Z,59.24
2023-10-14T09:17:45.124Z,58.62
2023-10-14T09:18:45.066Z,59.72
2023-10-14T09:19:45.071Z,61.02
2023-10-14T09:20:45.071Z,62.71
2023-10-14T09:21:45.331Z,64.22
2023-10-14T09:22:45.089Z,64.87
2023-10-14T09:23:45.009Z,65.70
2023-10-14T09:24:45.278Z,65.63
2023-10-14T09:25:44.975Z,65.43
2023-10-14T09:26:45.265Z,65.56
2023-10-14T09:27:45.088Z,66.39
2023-10-14T09:28:44.993Z,66.85
2023-10-14T09:29:44.933Z,68.27
2023-10-14T09:30:45.855Z,68.04
2023-10-14T09:31:45.025Z,68.23
2023-10-14T09:32:45.081Z,68.13
2023-10-14T09:33:44.964Z,67.94
2023-10-14T09:34:44.935Z,67.14
2023-10-14T09:35:44.878Z,67.54
2023-10-14T09:36:44.924Z,67.74
2023-10-14T09:37:44.955Z,67.67
2023-10-14T09:38:44.909Z,68.40
2023-10-14T09:39:44.927Z,68.40
2023-10-14T09:40:44.851Z,68.40
2023-10-14T09:41:44.836Z,69.85
2023-10-14T09:42:44.828Z,70.39
2023-10-14T09:43:44.893Z,70.29
2023-10-14T09:44:44.854Z,70.22
2023-10-14T09:45:44.839Z,70.56
2023-10-14T09:46:44.873Z,71.05
2023-10-14T09:47:44.892Z,71.85
2023-10-14T09:48:44.944Z,71.35
2023-10-14T09:49:45.033Z,71.55
2023-10-14T09:50:44.926Z,71.02
2023-10-14T09:51:44.876Z,70.56
2023-10-14T09:52:44.791Z,69.59
2023-10-14T09:53:44.805Z,67.90
2023-10-14T09:54:44.821Z,67.24
2023-10-14T09:55:44.758Z,66.72
2023-10-14T09:56:44.762Z,67.11
2023-10-14T09:57:44.745Z,67.68
2023-10-14T09:58:44.726Z,68.33
2023-10-14T09:59:44.733Z,69.39
2023-10-14T10:00:44.765Z,69.92
2023-10-14T10:01:44.867Z,70.45
2023-10-14T10:02:44.904Z,70.72
2023-10-14T10:03:44.919Z,70.36
2023-10-14T10:04:47.507Z,70.32
2023-10-14T10:05:44.674Z,69.65
2023-10-14T10:06:44.638Z,67.47
2023-10-14T10:07:44.655Z,68.10
2023-10-14T10:08:44.650Z,68.27
2023-10-14T10:09:44.616Z,68.50
2023-10-14T10:10:44.770Z,68.43
2023-10-14T10:11:44.612Z,68.99
2023-10-14T10:12:44.642Z,69.53
2023-10-14T10:13:44.630Z,70.45
2023-10-14T10:14:44.727Z,70.26
2023-10-14T10:15:44.651Z,70.75
2023-10-14T10:16:44.587Z,70.75
2023-10-14T10:17:44.609Z,71.05
2023-10-14T10:18:44.633Z,70.75
2023-10-14T10:19:44.584Z,70.95
2023-10-14T10:20:44.590Z,70.89
2023-10-14T10:21:44.694Z,71.09
2023-10-14T10:22:44.612Z,70.65
2023-10-14T10:23:44.529Z,70.82
2023-10-14T10:24:44.751Z,70.29
2023-10-14T10:25:44.499Z,69.85
2023-10-14T10:26:45.398Z,69.49
2023-10-14T10:27:44.516Z,68.37
2023-10-14T10:28:44.536Z,68.07
2023-10-14T10:29:44.460Z,68.66
2023-10-14T10:30:44.563Z,69.29
2023-10-14T10:31:44.596Z,69.20
2023-10-14T10:32:44.556Z,68.27
2023-10-14T10:33:44.606Z,69.43
2023-10-14T10:34:47.233Z,69.99
2023-10-14T10:35:44.466Z,70.95
2023-10-14T10:36:44.683Z,71.28
2023-10-14T10:37:44.387Z,71.72
2023-10-14T10:38:45.521Z,72.14
2023-10-14T10:39:44.477Z,72.64
2023-10-14T10:40:44.741Z,71.98
2023-10-14T10:41:44.411Z,71.18
2023-10-14T10:42:46.968Z,70.78
2023-10-14T10:43:45.360Z,70.92
2023-10-14T10:44:44.343Z,71.55
2023-10-14T10:45:44.837Z,71.64
2023-10-14T10:46:44.474Z,71.55
2023-10-14T10:47:44.355Z,71.38
2023-10-14T10:48:44.361Z,71.78
2023-10-14T10:49:44.364Z,70.55
2023-10-14T10:50:44.736Z,70.48
2023-10-14T10:51:44.284Z,71.51
2023-10-14T10:52:44.395Z,71.41
2023-10-14T10:53:44.295Z,71.75
2023-10-14T10:54:44.320Z,72.14
2023-10-14T10:55:44.257Z,71.51
2023-10-14T10:56:53.862Z,71.61
2023-10-14T11:02:15.067Z,71.78
2023-10-14T11:03:15.886Z,71.45
2023-10-14T11:04:14.822Z,71.37
2023-10-14T11:05:14.893Z,70.15
2023-10-14T11:06:14.887Z,70.05
2023-10-14T11:07:14.979Z,70.51
2023-10-14T11:08:14.808Z,69.65
2023-10-14T11:12:32.681Z,66.63
2023-10-14T11:20:45.962Z,61.27
2023-10-14T11:21:46.223Z,61.34
2023-10-14T11:22:45.931Z,61.54
2023-10-14T11:23:45.882Z,61.41
2023-10-14T11:24:45.943Z,61.47
2023-10-14T11:25:45.928Z,61.18
2023-10-14T11:26:46.011Z,60.37
2023-10-14T11:27:45.982Z,60.14
2023-10-14T11:28:45.900Z,61.80
2023-10-14T11:35:41.815Z,66.36
2023-10-14T11:36:44.159Z,67.11
2023-10-14T11:37:51.112Z,67.18
2023-10-14T11:38:41.748Z,68.04
2023-10-14T11:39:42.175Z,69.69
2023-10-14T11:40:41.848Z,69.53
2023-10-14T11:41:41.733Z,68.90
2023-10-14T11:42:41.636Z,68.01
2023-10-14T11:43:41.719Z,68.50
2023-10-14T11:44:41.617Z,69.46
2023-10-14T11:45:41.763Z,69.49
2023-10-14T11:46:41.842Z,68.40
2023-10-14T11:47:41.819Z,69.56
2023-10-14T11:48:41.777Z,69.69
2023-10-14T11:49:41.722Z,68.60
2023-10-14T11:50:41.706Z,69.53
2023-10-14T11:51:41.701Z,69.39
2023-10-14T11:52:41.605Z,68.43
2023-10-14T11:53:41.623Z,67.97
2023-10-14T11:54:41.572Z,67.41
2023-10-14T11:55:41.814Z,67.77
2023-10-14T11:56:41.633Z,67.25
2023-10-14T11:57:41.624Z,67.38
2023-10-14T11:58:41.758Z,67.25
2023-10-14T11:59:41.698Z,66.52
2023-10-14T12:00:41.658Z,66.63
2023-10-14T12:01:41.620Z,66.33
2023-10-14T12:02:41.767Z,66.09
2023-10-14T12:03:41.866Z,65.97
2023-10-14T12:04:41.729Z,66.03
2023-10-14T12:05:41.621Z,66.13
2023-10-14T12:06:41.684Z,66.92
2023-10-14T12:07:41.571Z,66.69
2023-10-14T12:15:56.006Z,66.17
2023-10-14T12:16:55.097Z,65.67
2023-10-14T12:17:55.099Z,65.15
2023-10-14T12:18:55.027Z,64.73
2023-10-14T12:19:54.969Z,64.40
2023-10-14T12:20:54.964Z,64.01
2023-10-14T12:21:55.156Z,63.91
2023-10-14T12:22:55.194Z,64.37
2023-10-14T12:23:54.931Z,64.76
2023-10-14T12:24:55.081Z,64.59
2023-10-14T12:25:55.017Z,65.35
2023-10-14T12:26:54.914Z,64.86
2023-10-14T12:27:55.051Z,65.35
2023-10-14T12:28:56.974Z,64.69
2023-10-14T12:29:54.939Z,65.05
2023-10-14T12:30:54.972Z,64.98
2023-10-14T12:32:07.632Z,65.64
2023-10-14T12:32:54.974Z,66.99
2023-10-14T12:33:54.848Z,67.02
2023-10-14T12:34:54.970Z,66.43
2023-10-14T12:35:54.941Z,65.48
2023-10-14T12:36:54.962Z,64.62
2023-10-14T12:37:54.874Z,64.27
2023-10-14T12:38:54.924Z,63.91
2023-10-14T12:39:54.887Z,63.71
2023-10-14T12:40:54.930Z,65.22
2023-10-14T12:41:54.877Z,65.52
2023-10-14T12:42:54.967Z,65.38
2023-10-14T12:43:54.833Z,64.53
2023-10-14T12:44:54.860Z,64.08
2023-10-14T12:45:54.789Z,63.65
2023-10-14T12:46:54.942Z,64.28
2023-10-14T12:47:54.830Z,64.83
2023-10-14T12:48:54.913Z,64.37
2023-10-14T12:49:54.798Z,64.15
2023-10-14T12:50:54.840Z,63.50
2023-10-14T12:51:54.829Z,62.98
2023-10-14T12:52:54.761Z,62.66
2023-10-14T12:53:54.820Z,62.63
2023-10-14T12:54:54.755Z,61.74
2023-10-14T12:55:54.711Z,62.53
2023-10-14T12:56:54.799Z,62.82
2023-10-14T12:57:54.782Z,62.40
2023-10-14T12:58:54.810Z,61.25
2023-10-14T12:59:54.716Z,61.35
2023-10-14T13:00:54.828Z,61.97
2023-10-14T13:01:54.798Z,62.39
2023-10-14T13:02:54.880Z,63.04
2023-10-14T13:03:54.919Z,63.49
2023-10-14T13:04:54.788Z,63.82
2023-10-14T13:05:54.716Z,64.08
2023-10-14T13:06:54.703Z,64.92
2023-10-14T13:07:54.713Z,65.09
2023-10-14T13:08:54.638Z,66.30
2023-10-14T13:09:54.665Z,67.15
2023-10-14T13:10:54.765Z,66.82
2023-10-14T13:11:54.602Z,67.64
2023-10-14T13:12:54.618Z,66.78
2023-10-14T13:13:54.608Z,67.71
2023-10-14T13:14:54.580Z,67.97
2023-10-14T13:15:54.581Z,69.16
2023-10-14T13:16:54.715Z,69.29
2023-10-14T13:17:54.590Z,69.62
2023-10-14T13:18:54.587Z,69.32
2023-10-14T13:19:54.559Z,69.76
2023-10-14T13:20:54.577Z,69.99
2023-10-14T13:21:54.558Z,70.48
2023-10-14T13:22:54.522Z,70.52
2023-10-14T13:23:54.586Z,70.65
2023-10-14T13:24:54.504Z,70.85
2023-10-14T13:25:54.505Z,71.25
2023-10-14T13:26:54.526Z,71.39
2023-10-14T13:27:54.515Z,71.69
2023-10-14T13:28:54.474Z,72.61
2023-10-14T13:29:54.463Z,72.52